Time;durP1;ratioP1;P1;durP2;ratioP2;P2;SDS_P1;SDS_P2;PMS_P1;PMS_P2;Temp;Humidity;BMP_temperature;BMP_pressure;BME280_temperature;BME280_humidity;BME280_pressure;Samples;Min_cycle;Max_cycle;Signal;HPM_P1;HPM_P2
2021/09/23 00:02:36;;;;;;;5.75;4.35;;;16.30;99.90;;;;;;5069051;28;20271;-76
2021/09/23 00:05:04;;;;;;;5.38;3.80;;;16.20;99.90;;;;;;5069323;28;20645;-76
2021/09/23 00:07:31;;;;;;;5.47;3.85;;;16.20;99.90;;;;;;5069480;28;20206;-77
2021/09/23 00:09:58;;;;;;;4.68;3.97;;;16.20;99.90;;;;;;5072377;28;20210;-79
2021/09/23 00:12:25;;;;;;;5.18;4.47;;;16.20;99.90;;;;;;5072825;28;20256;-78
2021/09/23 00:14:52;;;;;;;9.98;4.03;;;16.10;99.90;;;;;;5073275;28;20750;-78
2021/09/23 00:17:20;;;;;;;5.80;3.60;;;16.00;99.90;;;;;;5072485;28;20610;-78
2021/09/23 00:19:47;;;;;;;5.20;3.45;;;16.00;99.90;;;;;;5072613;28;20210;-77
2021/09/23 00:22:14;;;;;;;3.67;3.38;;;16.00;99.90;;;;;;5073153;28;20264;-77
2021/09/23 00:24:41;;;;;;;4.43;3.78;;;16.10;99.90;;;;;;5073160;28;20210;-78
2021/09/23 00:27:08;;;;;;;4.53;3.25;;;16.00;99.90;;;;;;5072635;28;20210;-79
2021/09/23 00:29:35;;;;;;;4.07;3.67;;;16.10;99.90;;;;;;5073037;28;20202;-78
2021/09/23 00:32:02;;;;;;;9.15;4.05;;;16.10;99.90;;;;;;5072641;28;20731;-78
2021/09/23 00:34:31;;;;;;;5.05;3.95;;;16.10;99.90;;;;;;5073249;28;20206;-78
2021/09/23 00:36:58;;;;;;;6.30;3.95;;;16.00;99.90;;;;;;5072907;28;20933;-77
2021/09/23 00:39:25;;;;;;;5.53;4.15;;;15.90;99.90;;;;;;5072778;28;20206;-82
2021/09/23 00:41:53;;;;;;;4.88;3.53;;;15.90;99.90;;;;;;5072855;28;20247;-80
2021/09/23 00:44:21;;;;;;;5.05;4.28;;;15.80;99.90;;;;;;5072361;28;20207;-78
2021/09/23 00:46:50;;;;;;;4.43;4.03;;;15.80;99.90;;;;;;5072712;28;20249;-77
2021/09/23 00:49:17;;;;;;;4.90;3.45;;;15.80;99.90;;;;;;5072573;28;20202;-77
2021/09/23 00:51:46;;;;;;;4.68;4.10;;;15.80;99.90;;;;;;5072842;28;20332;-80
2021/09/23 00:54:13;;;;;;;5.00;4.55;;;15.70;99.90;;;;;;5072309;28;20202;-79
2021/09/23 00:56:40;;;;;;;4.55;4.13;;;15.80;99.90;;;;;;5072734;28;20202;-80
2021/09/23 00:59:07;;;;;;;4.60;4.07;;;15.70;99.90;;;;;;5071986;28;20210;-82
2021/09/23 01:01:34;;;;;;;8.82;4.53;;;15.80;99.90;;;;;;5072413;28;20210;-77
2021/09/23 01:04:01;;;;;;;6.97;4.93;;;15.70;99.90;;;;;;5072302;28;20252;-77
2021/09/23 01:06:28;;;;;;;12.23;4.60;;;15.70;99.90;;;;;;5072593;28;20307;-77
2021/09/23 01:08:58;;;;;;;5.47;4.60;;;15.70;99.90;;;;;;5072550;28;20206;-78
2021/09/23 01:11:27;;;;;;;4.85;4.35;;;15.70;99.90;;;;;;5071760;28;20248;-78
2021/09/23 01:13:55;;;;;;;6.40;4.50;;;15.60;99.90;;;;;;5071882;28;20636;-77
2021/09/23 01:16:23;;;;;;;6.03;5.15;;;15.60;99.90;;;;;;5071562;28;20210;-77
2021/09/23 01:18:50;;;;;;;5.57;4.32;;;15.60;99.90;;;;;;5071877;28;20210;-74
2021/09/23 01:21:18;;;;;;;8.18;5.03;;;15.60;99.90;;;;;;5071559;28;20210;-74
2021/09/23 01:23:46;;;;;;;6.40;5.60;;;15.50;99.90;;;;;;5071901;28;20199;-74
2021/09/23 01:26:17;;;;;;;5.32;4.82;;;15.60;99.90;;;;;;5071430;28;20230;-74
2021/09/23 01:28:44;;;;;;;5.43;4.20;;;15.60;99.90;;;;;;5071387;28;20677;-74
2021/09/23 01:31:11;;;;;;;6.82;4.82;;;15.60;99.90;;;;;;5071465;28;20633;-73
2021/09/23 01:33:39;;;;;;;7.40;5.00;;;15.60;99.90;;;;;;5071518;28;20210;-76
2021/09/23 01:36:06;;;;;;;8.13;5.70;;;15.60;99.90;;;;;;5071504;28;20206;-76
2021/09/23 01:38:34;;;;;;;6.07;5.47;;;15.50;99.90;;;;;;5071532;28;20550;-76
2021/09/23 01:41:01;;;;;;;5.95;5.13;;;15.50;99.90;;;;;;5071515;28;20264;-76
2021/09/23 01:43:28;;;;;;;8.57;4.47;;;15.50;99.90;;;;;;5071891;28;20206;-76
2021/09/23 01:45:55;;;;;;;5.60;4.68;;;15.50;99.90;;;;;;5071670;28;20646;-78
2021/09/23 01:48:22;;;;;;;5.50;4.22;;;15.50;99.90;;;;;;5071363;28;20231;-79
2021/09/23 01:50:50;;;;;;;4.07;3.67;;;15.40;99.90;;;;;;5071146;28;20210;-78
2021/09/23 01:53:17;;;;;;;5.15;4.65;;;15.40;99.90;;;;;;5071085;28;20202;-79
2021/09/23 01:55:45;;;;;;;5.57;4.55;;;15.40;99.90;;;;;;5056925;28;20590;-78
2021/09/23 01:58:12;;;;;;;4.80;4.40;;;15.40;99.90;;;;;;5070799;28;20681;-79
2021/09/23 02:00:39;;;;;;;5.10;4.38;;;15.20;99.90;;;;;;5070973;28;20210;-75
2021/09/23 02:03:06;;;;;;;5.95;5.35;;;15.20;99.90;;;;;;5071086;28;20260;-77
2021/09/23 02:05:33;;;;;;;9.60;4.78;;;15.20;99.90;;;;;;5071130;28;20206;-75
2021/09/23 02:08:00;;;;;;;5.88;4.63;;;15.20;99.90;;;;;;5071307;28;20251;-76
2021/09/23 02:10:27;;;;;;;5.05;4.45;;;15.30;99.90;;;;;;5071208;28;20206;-77
2021/09/23 02:12:55;;;;;;;4.75;4.10;;;15.30;99.90;;;;;;5070775;28;20202;-76
2021/09/23 02:15:22;;;;;;;5.25;4.75;;;15.30;99.90;;;;;;5070938;28;20306;-77
2021/09/23 02:17:49;;;;;;;5.40;4.28;;;15.30;99.90;;;;;;5071018;28;20206;-80
2021/09/23 02:20:16;;;;;;;6.75;5.18;;;15.20;99.90;;;;;;5070359;28;20232;-79
2021/09/23 02:22:43;;;;;;;8.88;5.13;;;15.20;99.90;;;;;;5070886;28;20243;-79
2021/09/23 02:25:11;;;;;;;7.68;4.95;;;15.20;99.90;;;;;;5070449;28;20206;-79
2021/09/23 02:27:39;;;;;;;5.22;4.72;;;15.20;99.90;;;;;;5070693;28;20237;-79
2021/09/23 02:30:08;;;;;;;7.60;5.53;;;15.30;99.90;;;;;;5070385;28;20206;-79
2021/09/23 02:32:36;;;;;;;6.07;4.75;;;15.20;99.90;;;;;;5070683;28;20202;-79
2021/09/23 02:35:03;;;;;;;7.70;5.40;;;15.20;99.90;;;;;;5070250;28;20210;-79
2021/09/23 02:37:30;;;;;;;5.75;4.68;;;15.20;99.90;;;;;;5070916;28;20636;-76
2021/09/23 02:39:58;;;;;;;5.60;4.85;;;15.20;99.90;;;;;;5070779;28;20214;-76
2021/09/23 02:42:25;;;;;;;7.03;6.03;;;15.20;99.90;;;;;;5069953;28;20209;-77
2021/09/23 02:44:52;;;;;;;6.45;5.85;;;15.10;99.90;;;;;;5070684;28;20260;-79
2021/09/23 02:47:22;;;;;;;8.75;6.18;;;15.00;99.90;;;;;;5070075;28;20492;-81
2021/09/23 02:49:50;;;;;;;6.97;4.43;;;15.00;99.90;;;;;;5070443;28;20214;-80
2021/09/23 02:52:17;;;;;;;5.85;5.25;;;15.00;99.90;;;;;;5063698;28;20202;-80
2021/09/23 02:54:44;;;;;;;7.35;5.15;;;15.00;99.90;;;;;;5059267;28;20276;-80
2021/09/23 02:57:11;;;;;;;4.90;4.38;;;15.10;99.90;;;;;;5065763;28;20271;-80
2021/09/23 02:59:39;;;;;;;6.90;5.53;;;15.10;99.90;;;;;;5070116;28;20248;-79
2021/09/23 03:02:06;;;;;;;5.32;4.50;;;15.00;99.90;;;;;;5069828;28;20264;-77
2021/09/23 03:04:34;;;;;;;5.55;4.72;;;14.90;99.90;;;;;;5070201;28;20260;-77
2021/09/23 03:07:01;;;;;;;5.03;3.97;;;14.90;99.90;;;;;;5070556;28;20279;-77
2021/09/23 03:09:28;;;;;;;5.15;4.72;;;14.90;99.90;;;;;;5070314;28;20202;-78
2021/09/23 03:11:55;;;;;;;8.50;5.20;;;15.00;99.90;;;;;;5070573;28;20206;-77
2021/09/23 03:14:22;;;;;;;5.35;4.13;;;15.00;99.90;;;;;;5070181;28;20255;-78
2021/09/23 03:16:49;;;;;;;5.55;4.40;;;14.90;99.90;;;;;;5070048;28;20213;-79
2021/09/23 03:19:16;;;;;;;4.95;4.45;;;14.80;99.90;;;;;;5069865;28;20260;-80
2021/09/23 03:21:45;;;;;;;5.20;4.43;;;14.80;99.90;;;;;;5070279;28;20673;-78
2021/09/23 03:24:12;;;;;;;7.22;4.93;;;14.80;99.90;;;;;;5069353;28;20206;-77
2021/09/23 03:26:40;;;;;;;5.68;5.18;;;14.70;99.90;;;;;;5069952;28;20225;-77
2021/09/23 03:29:07;;;;;;;6.45;5.40;;;14.80;99.90;;;;;;5069506;28;20252;-77
2021/09/23 03:31:34;;;;;;;6.15;4.88;;;14.80;99.90;;;;;;5070125;28;20202;-77
2021/09/23 03:34:01;;;;;;;4.78;4.30;;;14.90;99.90;;;;;;5070492;28;20209;-77
2021/09/23 03:36:28;;;;;;;6.20;4.10;;;14.90;99.90;;;;;;5070264;28;20263;-77
2021/09/23 03:38:56;;;;;;;6.43;5.70;;;14.90;99.90;;;;;;5070087;28;20206;-77
2021/09/23 03:41:23;;;;;;;4.90;4.32;;;14.80;99.90;;;;;;5069471;28;20206;-76
2021/09/23 03:43:51;;;;;;;9.60;6.63;;;14.90;99.90;;;;;;5070935;28;20210;-77
2021/09/23 03:46:18;;;;;;;5.72;5.20;;;14.90;99.90;;;;;;5073078;28;20324;-77
2021/09/23 03:48:45;;;;;;;5.68;4.97;;;14.80;99.90;;;;;;5074122;28;20267;-77
2021/09/23 03:51:14;;;;;;;8.52;4.40;;;14.70;99.90;;;;;;5073084;28;20248;-78
2021/09/23 03:53:41;;;;;;;8.38;4.60;;;14.70;99.90;;;;;;5073612;28;20198;-78
2021/09/23 03:56:12;;;;;;;6.85;5.22;;;14.80;99.90;;;;;;5073522;28;20210;-77
2021/09/23 03:58:39;;;;;;;7.30;4.50;;;14.80;99.90;;;;;;5073705;28;20564;-77
2021/09/23 04:01:06;;;;;;;6.10;5.38;;;14.70;99.90;;;;;;5072980;28;20222;-76
2021/09/23 04:03:33;;;;;;;4.88;4.35;;;14.70;99.90;;;;;;5073521;28;20268;-80
2021/09/23 04:06:00;;;;;;;8.43;4.75;;;14.60;99.90;;;;;;5073887;28;20237;-78
2021/09/23 04:08:27;;;;;;;5.28;4.22;;;14.60;99.90;;;;;;5059359;28;20232;-76
2021/09/23 04:10:54;;;;;;;6.60;5.15;;;14.60;99.90;;;;;;5073457;28;20641;-80
2021/09/23 04:13:23;;;;;;;5.10;4.60;;;14.70;99.90;;;;;;5073020;28;20942;-79
2021/09/23 04:15:50;;;;;;;5.30;4.78;;;14.70;99.90;;;;;;5073599;28;20206;-80
2021/09/23 04:18:18;;;;;;;5.28;4.15;;;14.70;99.90;;;;;;5073054;28;20210;-79
2021/09/23 04:20:45;;;;;;;5.45;4.85;;;14.70;99.90;;;;;;5072861;28;20232;-81
2021/09/23 04:23:12;;;;;;;8.13;5.90;;;14.70;99.90;;;;;;5072559;28;20210;-81
2021/09/23 04:25:40;;;;;;;5.47;4.95;;;14.70;99.90;;;;;;5072915;28;20252;-82
2021/09/23 04:28:07;;;;;;;6.85;5.20;;;14.60;99.90;;;;;;5072983;28;20653;-81
2021/09/23 04:30:36;;;;;;;10.85;5.60;;;14.60;99.90;;;;;;5073048;28;20264;-84
2021/09/23 04:33:03;;;;;;;8.27;5.75;;;14.60;99.90;;;;;;5072771;28;20746;-83
2021/09/23 04:35:30;;;;;;;5.15;4.75;;;14.60;99.90;;;;;;5073542;28;20213;-83
2021/09/23 04:37:57;;;;;;;5.82;4.47;;;14.50;99.90;;;;;;5066857;28;20202;-83
2021/09/23 04:40:24;;;;;;;6.55;5.85;;;14.50;99.90;;;;;;5065385;28;20256;-83
2021/09/23 04:42:52;;;;;;;7.10;5.13;;;14.50;99.90;;;;;;5072945;28;20697;-84
2021/09/23 04:45:19;;;;;;;5.80;5.15;;;14.60;99.90;;;;;;5072666;28;20287;-83
2021/09/23 04:47:47;;;;;;;7.15;4.70;;;14.60;99.90;;;;;;5072609;28;20225;-83
2021/09/23 04:50:14;;;;;;;6.30;5.38;;;14.50;99.90;;;;;;5072597;28;20252;-83
2021/09/23 04:52:41;;;;;;;8.85;6.40;;;14.50;99.90;;;;;;5072142;28;20214;-83
2021/09/23 04:55:09;;;;;;;6.18;5.18;;;14.50;99.90;;;;;;5072303;28;20206;-77
2021/09/23 04:57:36;;;;;;;5.85;5.28;;;14.40;99.90;;;;;;5072259;28;20620;-77
2021/09/23 05:00:05;;;;;;;6.97;5.93;;;14.40;99.90;;;;;;5071902;28;20298;-80
2021/09/23 05:02:32;;;;;;;6.40;4.13;;;14.50;99.90;;;;;;5071988;28;20222;-80
2021/09/23 05:05:01;;;;;;;6.80;4.55;;;14.50;99.90;;;;;;5072412;28;20206;-80
2021/09/23 05:07:28;;;;;;;6.07;5.10;;;14.40;99.90;;;;;;5072538;28;20237;-81
2021/09/23 05:09:56;;;;;;;7.60;4.85;;;14.30;99.90;;;;;;5072547;28;20271;-81
2021/09/23 05:12:23;;;;;;;6.20;4.88;;;14.30;99.90;;;;;;5072030;28;20415;-81
2021/09/23 05:14:50;;;;;;;7.82;4.07;;;14.40;99.90;;;;;;5072503;28;20210;-81
2021/09/23 05:17:17;;;;;;;13.75;5.47;;;14.40;99.90;;;;;;5071760;28;20263;-81
2021/09/23 05:19:44;;;;;;;14.13;5.95;;;14.40;99.90;;;;;;5071902;28;20252;-76
2021/09/23 05:22:12;;;;;;;5.43;4.93;;;14.40;99.90;;;;;;5071555;28;20218;-78
2021/09/23 05:24:40;;;;;;;7.70;5.30;;;14.40;99.90;;;;;;5071977;28;20260;-78
2021/09/23 05:27:07;;;;;;;8.45;5.78;;;14.30;99.90;;;;;;5071515;28;20308;-78
2021/09/23 05:29:34;;;;;;;6.10;4.95;;;14.20;99.90;;;;;;5071900;28;20251;-78
2021/09/23 05:32:01;;;;;;;7.13;5.57;;;14.30;99.90;;;;;;5072067;28;20210;-79
2021/09/23 05:34:28;;;;;;;6.60;5.78;;;14.20;99.90;;;;;;5071882;28;20278;-77
2021/09/23 05:36:55;;;;;;;5.43;4.93;;;14.30;99.90;;;;;;5071645;28;20674;-78
2021/09/23 05:39:23;;;;;;;6.28;5.68;;;14.30;99.90;;;;;;5066488;28;20658;-78
2021/09/23 05:41:50;;;;;;;5.63;4.93;;;14.30;99.90;;;;;;5067154;28;20210;-79
2021/09/23 05:44:23;;;;;;;7.15;5.88;;;14.30;99.90;;;;;;5069837;28;20315;-80
2021/09/23 05:46:50;;;;;;;7.35;5.75;;;14.30;99.90;;;;;;5064191;28;20233;-79
2021/09/23 05:49:17;;;;;;;7.57;6.38;;;14.30;99.90;;;;;;5064655;28;20210;-80
2021/09/23 05:51:44;;;;;;;8.35;6.28;;;14.20;99.90;;;;;;5069238;28;20199;-76
2021/09/23 05:54:11;;;;;;;9.13;5.57;;;14.30;99.90;;;;;;5070922;28;20210;-73
2021/09/23 05:56:40;;;;;;;9.60;5.13;;;14.30;99.90;;;;;;5071210;28;20198;-74
2021/09/23 05:59:07;;;;;;;6.03;5.53;;;14.40;99.90;;;;;;5071044;28;20246;-82
2021/09/23 06:01:34;;;;;;;7.78;5.07;;;14.50;99.90;;;;;;5070793;28;20271;-85
2021/09/23 06:04:01;;;;;;;5.90;5.30;;;14.50;99.90;;;;;;5062661;28;20264;-74
2021/09/23 06:06:28;;;;;;;6.60;5.88;;;14.50;99.90;;;;;;5070969;28;20229;-85
2021/09/23 06:08:55;;;;;;;8.52;5.35;;;14.50;99.90;;;;;;5071135;28;20238;-81
2021/09/23 06:11:22;;;;;;;11.15;6.60;;;14.50;99.90;;;;;;5070939;28;20561;-77
2021/09/23 06:13:50;;;;;;;7.95;5.15;;;14.50;99.90;;;;;;5070518;28;20206;-74
2021/09/23 06:16:17;;;;;;;7.68;6.22;;;14.50;99.90;;;;;;5067711;28;20210;-84
2021/09/23 06:18:46;;;;;;;7.38;5.10;;;14.50;99.90;;;;;;5067825;28;20205;-75
2021/09/23 06:21:13;;;;;;;5.25;4.72;;;14.60;99.90;;;;;;5062206;28;20596;-73
2021/09/23 06:23:40;;;;;;;7.25;5.53;;;14.60;99.90;;;;;;5067801;28;20198;-72
2021/09/23 06:26:07;;;;;;;6.35;5.75;;;14.60;99.90;;;;;;5070517;28;20210;-74
2021/09/23 06:28:34;;;;;;;10.10;6.30;;;14.70;99.90;;;;;;5070062;28;20225;-73
2021/09/23 06:31:03;;;;;;;7.10;5.88;;;14.70;99.90;;;;;;5070404;28;20625;-77
2021/09/23 06:33:30;;;;;;;6.32;5.70;;;14.80;99.90;;;;;;5066041;28;20301;-76
2021/09/23 06:35:57;;;;;;;7.97;5.88;;;14.80;99.90;;;;;;5067630;28;20260;-84
2021/09/23 06:38:25;;;;;;;5.65;4.95;;;14.90;99.90;;;;;;5067809;28;20697;-79
2021/09/23 06:40:54;;;;;;;9.32;6.85;;;15.00;99.90;;;;;;5066250;28;20636;-85
2021/09/23 06:43:22;;;;;;;6.85;5.75;;;15.10;99.90;;;;;;5069659;28;21036;-74
2021/09/23 06:45:49;;;;;;;7.70;6.47;;;15.20;99.90;;;;;;5069516;28;20202;-81
2021/09/23 06:48:17;;;;;;;7.25;5.72;;;15.30;99.90;;;;;;5059584;28;20283;-77
2021/09/23 06:50:44;;;;;;;14.07;6.18;;;15.30;99.90;;;;;;5070346;28;20198;-76
2021/09/23 06:53:11;;;;;;;6.90;5.90;;;15.30;99.90;;;;;;5062301;28;20206;-76
2021/09/23 06:55:38;;;;;;;13.18;6.35;;;15.40;99.90;;;;;;5070535;28;20623;-73
2021/09/23 06:58:05;;;;;;;8.68;6.10;;;15.40;99.90;;;;;;5069648;28;20206;-74
2021/09/23 07:00:32;;;;;;;7.82;5.95;;;15.50;99.90;;;;;;5065847;28;20287;-74
2021/09/23 07:02:59;;;;;;;11.40;7.13;;;15.50;99.90;;;;;;5069679;28;20202;-76
2021/09/23 07:05:28;;;;;;;6.50;5.88;;;15.60;99.90;;;;;;5068846;28;20202;-76
2021/09/23 07:07:55;;;;;;;8.25;6.10;;;15.80;99.90;;;;;;5065480;28;20235;-79
2021/09/23 07:10:22;;;;;;;7.35;6.05;;;16.00;99.90;;;;;;5066396;28;20206;-79
2021/09/23 07:12:49;;;;;;;7.80;7.07;;;16.00;99.90;;;;;;5062061;28;20205;-77
2021/09/23 07:15:16;;;;;;;8.65;6.43;;;16.00;99.90;;;;;;5068710;28;20198;-77
2021/09/23 07:17:43;;;;;;;10.23;6.38;;;16.00;99.90;;;;;;5060430;28;20297;-77
2021/09/23 07:20:11;;;;;;;8.75;7.50;;;16.10;99.90;;;;;;5071351;28;20210;-77
2021/09/23 07:22:40;;;;;;;9.43;6.20;;;16.20;99.90;;;;;;5062975;28;20263;-77
2021/09/23 07:25:07;;;;;;;7.78;6.97;;;16.40;99.90;;;;;;5064975;28;20284;-79
2021/09/23 07:27:35;;;;;;;8.00;6.85;;;16.50;99.90;;;;;;5068563;28;20274;-80
2021/09/23 07:30:02;;;;;;;6.60;6.00;;;16.40;99.90;;;;;;5072093;28;20224;-79
2021/09/23 07:32:29;;;;;;;9.10;7.78;;;16.50;99.90;;;;;;5071676;28;20202;-82
2021/09/23 07:34:56;;;;;;;9.68;7.40;;;16.60;99.90;;;;;;5072370;28;20202;-76
2021/09/23 07:37:23;;;;;;;6.88;6.18;;;16.60;99.90;;;;;;5071902;28;20696;-76
2021/09/23 07:39:51;;;;;;;8.13;6.50;;;16.70;99.90;;;;;;5073108;28;20202;-75
2021/09/23 07:42:18;;;;;;;10.85;7.43;;;16.80;99.90;;;;;;5072000;28;20210;-74
2021/09/23 07:44:45;;;;;;;7.05;6.38;;;17.00;99.90;;;;;;5071563;28;20203;-75
2021/09/23 07:47:12;;;;;;;11.43;7.25;;;17.10;99.90;;;;;;5072230;28;20264;-76
2021/09/23 07:49:39;;;;;;;6.97;6.13;;;17.10;99.90;;;;;;5073669;28;20206;-75
2021/09/23 07:52:07;;;;;;;9.57;6.90;;;17.30;99.90;;;;;;5070810;28;20255;-75
2021/09/23 07:54:34;;;;;;;9.02;6.65;;;17.40;99.90;;;;;;5073162;28;20279;-75
2021/09/23 07:57:03;;;;;;;10.75;6.95;;;17.50;99.90;;;;;;5074007;28;20263;-75
2021/09/23 07:59:29;;;;;;;8.23;6.80;;;17.60;99.90;;;;;;5073253;28;20240;-73
2021/09/23 08:01:56;;;;;;;13.00;6.47;;;17.80;99.90;;;;;;5073553;28;20260;-74
2021/09/23 08:04:24;;;;;;;12.82;6.70;;;18.00;99.90;;;;;;5072135;28;20214;-74
2021/09/23 08:06:51;;;;;;;12.05;7.22;;;18.00;99.90;;;;;;5073390;28;20625;-74
2021/09/23 08:09:18;;;;;;;8.02;6.25;;;18.00;99.90;;;;;;5073091;28;20276;-74
2021/09/23 08:11:46;;;;;;;9.43;6.60;;;18.00;99.90;;;;;;5073154;28;20673;-74
2021/09/23 08:14:14;;;;;;;8.88;7.18;;;18.10;99.90;;;;;;5072614;28;20219;-74
2021/09/23 08:16:43;;;;;;;8.77;7.40;;;18.20;99.90;;;;;;5073446;28;20259;-74
2021/09/23 08:19:10;;;;;;;10.55;6.15;;;18.30;99.90;;;;;;5070926;28;20206;-75
2021/09/23 08:21:37;;;;;;;5.72;5.13;;;18.30;99.90;;;;;;5072350;28;20214;-75
2021/09/23 08:24:04;;;;;;;8.80;6.75;;;18.60;99.90;;;;;;5069642;28;20236;-74
2021/09/23 08:26:31;;;;;;;11.65;7.00;;;18.70;99.90;;;;;;5072863;28;20207;-75
2021/09/23 08:28:58;;;;;;;11.45;6.82;;;18.70;99.90;;;;;;5069892;28;20229;-76
2021/09/23 08:31:27;;;;;;;7.03;6.32;;;18.80;99.90;;;;;;5069847;28;20202;-74
2021/09/23 08:33:53;;;;;;;10.13;7.35;;;18.90;99.90;;;;;;5072296;28;20549;-74
2021/09/23 08:36:21;;;;;;;10.80;7.38;;;19.10;99.90;;;;;;5063786;28;20202;-76
2021/09/23 08:38:50;;;;;;;9.65;7.40;;;19.20;99.90;;;;;;5070427;28;20202;-75
2021/09/23 08:41:17;;;;;;;10.02;7.30;;;19.30;99.90;;;;;;5072375;28;20573;-74
2021/09/23 08:43:44;;;;;;;9.90;6.85;;;19.50;99.90;;;;;;5071328;28;20206;-75
2021/09/23 08:46:11;;;;;;;9.82;7.13;;;19.50;99.90;;;;;;5071041;28;20198;-75
2021/09/23 08:48:40;;;;;;;10.70;8.00;;;19.60;99.90;;;;;;5072335;28;20280;-75
2021/09/23 08:51:07;;;;;;;7.53;6.68;;;19.50;99.90;;;;;;5071131;28;20203;-73
2021/09/23 08:53:34;;;;;;;7.80;7.03;;;19.60;99.90;;;;;;5066459;28;20214;-72
2021/09/23 08:56:01;;;;;;;8.88;7.68;;;19.60;99.90;;;;;;5068024;28;20271;-72
2021/09/23 08:58:28;;;;;;;9.27;7.32;;;19.70;99.90;;;;;;5071638;28;20210;-72
2021/09/23 09:01:04;;;;;;;8.88;7.47;;;19.80;99.90;;;;;;5067869;28;20288;-72
2021/09/23 09:03:33;;;;;;;9.07;7.03;;;20.10;99.90;;;;;;5067246;28;20635;-72
2021/09/23 09:06:05;;;;;;;8.02;6.47;;;20.40;99.90;;;;;;5070607;28;20666;-72
2021/09/23 09:08:33;;;;;;;8.80;6.50;;;20.60;99.90;;;;;;5067642;28;20304;-73
2021/09/23 09:11:01;;;;;;;12.02;8.07;;;20.70;99.90;;;;;;5072098;28;20210;-72
2021/09/23 09:13:33;;;;;;;8.35;6.07;;;20.40;99.90;;;;;;5071851;28;20255;-72
2021/09/23 09:16:07;;;;;;;8.27;6.75;;;20.50;99.90;;;;;;5064505;28;20216;-73
2021/09/23 09:18:34;;;;;;;11.38;7.00;;;20.60;99.90;;;;;;5072103;28;20305;-73
2021/09/23 09:21:04;;;;;;;9.38;6.55;;;20.80;99.90;;;;;;5072136;28;20209;-72
2021/09/23 09:23:38;;;;;;;7.13;6.25;;;21.20;99.90;;;;;;5066000;28;20210;-73
2021/09/23 09:26:06;;;;;;;7.30;6.53;;;22.10;99.90;;;;;;5071050;28;20237;-72
2021/09/23 09:28:33;;;;;;;8.73;6.15;;;21.90;99.90;;;;;;5072072;28;20366;-73
2021/09/23 09:31:01;;;;;;;10.02;6.30;;;21.70;99.90;;;;;;5070862;28;20254;-75
2021/09/23 09:33:36;;;;;;;11.50;6.88;;;21.50;99.90;;;;;;5066701;28;20268;-73
2021/09/23 09:36:05;;;;;;;7.65;5.90;;;21.50;99.90;;;;;;5069190;28;20202;-72
2021/09/23 09:38:32;;;;;;;8.10;5.18;;;21.50;99.90;;;;;;5071796;28;20267;-73
2021/09/23 09:41:02;;;;;;;7.95;6.40;;;21.70;99.90;;;;;;5060390;28;20511;-75
2021/09/23 09:43:31;;;;;;;9.25;6.45;;;21.80;99.90;;;;;;5070366;28;20822;-72
2021/09/23 09:45:58;;;;;;;6.90;5.32;;;21.80;99.90;;;;;;5068523;28;20205;-74
2021/09/23 09:48:30;;;;;;;10.77;5.85;;;21.90;99.90;;;;;;5071020;28;20222;-74
2021/09/23 09:51:02;;;;;;;8.55;7.05;;;21.90;99.90;;;;;;5069083;28;20664;-75
2021/09/23 09:53:30;;;;;;;7.47;5.32;;;22.20;99.90;;;;;;5071619;28;20752;-74
2021/09/23 09:55:57;;;;;;;7.00;6.18;;;22.20;99.90;;;;;;5070111;28;20213;-75
2021/09/23 09:58:25;;;;;;;7.75;5.82;;;22.40;99.90;;;;;;5058942;28;20446;-75
2021/09/23 10:00:52;;;;;;;10.05;6.57;;;22.60;99.90;;;;;;5063730;28;20269;-75
2021/09/23 10:03:20;;;;;;;6.40;5.22;;;22.60;99.90;;;;;;5063306;28;20214;-74
2021/09/23 10:05:47;;;;;;;6.18;5.55;;;23.40;99.90;;;;;;5068545;28;20290;-75
2021/09/23 10:08:17;;;;;;;6.43;5.10;;;24.70;99.90;;;;;;5063968;28;20591;-75
2021/09/23 10:10:47;;;;;;;6.82;5.45;;;27.20;99.90;;;;;;5064735;28;20209;-75
2021/09/23 10:13:18;;;;;;;5.28;4.63;;;27.90;99.90;;;;;;5065435;28;20206;-74
2021/09/23 10:15:46;;;;;;;6.72;6.07;;;28.70;99.90;;;;;;5064503;28;20276;-75
2021/09/23 10:18:13;;;;;;;6.65;5.40;;;28.80;99.90;;;;;;5064733;28;20272;-73
2021/09/23 10:20:41;;;;;;;6.65;4.80;;;28.90;99.90;;;;;;5061520;28;20206;-73
2021/09/23 10:23:08;;;;;;;5.85;5.10;;;26.50;99.90;;;;;;5070595;28;20256;-74
2021/09/23 10:25:36;;;;;;;8.15;6.00;;;24.50;99.90;;;;;;5070444;28;20210;-74
2021/09/23 10:28:07;;;;;;;8.45;4.40;;;23.30;99.90;;;;;;5070127;28;20252;-74
2021/09/23 10:30:36;;;;;;;7.50;4.97;;;23.00;99.90;;;;;;5066337;28;20247;-74
2021/09/23 10:33:04;;;;;;;5.47;4.85;;;22.90;99.90;;;;;;5068902;28;20677;-74
2021/09/23 10:35:32;;;;;;;6.38;4.35;;;23.10;99.90;;;;;;5070438;28;20263;-74
2021/09/23 10:38:01;;;;;;;5.32;4.35;;;23.10;99.90;;;;;;5070787;28;20625;-74
2021/09/23 10:40:29;;;;;;;4.50;4.18;;;23.00;99.90;;;;;;5070239;28;20209;-72
2021/09/23 10:43:01;;;;;;;5.20;3.65;;;22.80;99.90;;;;;;5070835;28;20220;-74
2021/09/23 10:45:30;;;;;;;3.80;3.42;;;23.00;99.90;;;;;;5065531;28;20684;-74
2021/09/23 10:47:59;;;;;;;4.93;4.00;;;23.30;99.90;;;;;;5070405;28;20202;-73
2021/09/23 10:50:29;;;;;;;5.85;4.47;;;23.40;99.90;;;;;;5070159;28;20234;-73
2021/09/23 10:52:57;;;;;;;5.43;3.60;;;23.40;99.90;;;;;;5069829;28;20202;-73
2021/09/23 10:55:26;;;;;;;5.25;4.72;;;23.30;99.90;;;;;;5068793;28;20213;-74
2021/09/23 10:57:53;;;;;;;4.63;4.22;;;23.50;99.90;;;;;;5070092;28;20240;-74
2021/09/23 11:00:25;;;;;;;5.05;3.45;;;23.50;99.90;;;;;;5069188;28;20209;-74
2021/09/23 11:02:54;;;;;;;3.80;3.50;;;23.40;99.90;;;;;;5070094;28;20247;-75
2021/09/23 11:05:24;;;;;;;4.93;3.80;;;23.50;99.90;;;;;;5069912;28;20214;-75
2021/09/23 11:07:54;;;;;;;3.10;2.80;;;23.50;99.90;;;;;;5070216;28;20218;-74
2021/09/23 11:10:22;;;;;;;4.05;3.30;;;23.60;99.90;;;;;;5069818;28;20249;-75
2021/09/23 11:12:52;;;;;;;3.88;3.33;;;23.70;99.90;;;;;;5066360;28;20213;-74
2021/09/23 11:15:21;;;;;;;4.35;3.03;;;23.60;99.90;;;;;;5067921;28;20244;-74
2021/09/23 11:17:48;;;;;;;5.75;4.65;;;23.60;99.90;;;;;;5070245;28;20267;-74
2021/09/23 11:20:20;;;;;;;4.32;3.92;;;23.60;99.90;;;;;;5069727;28;20251;-74
2021/09/23 11:22:49;;;;;;;5.70;3.78;;;23.60;99.90;;;;;;5069809;28;20228;-74
2021/09/23 11:25:18;;;;;;;4.72;2.85;;;23.70;99.90;;;;;;5068339;28;20552;-77
2021/09/23 11:27:47;;;;;;;3.78;2.85;;;23.80;99.90;;;;;;5069698;28;20632;-75
2021/09/23 11:30:16;;;;;;;2.67;2.47;;;24.00;99.90;;;;;;5068711;28;20237;-75
2021/09/23 11:32:48;;;;;;;2.35;2.15;;;24.00;99.90;;;;;;5067642;28;20206;-76
2021/09/23 11:35:17;;;;;;;3.22;3.00;;;24.00;99.90;;;;;;5069478;28;20210;-75
2021/09/23 11:37:44;;;;;;;2.92;2.63;;;24.00;99.90;;;;;;5067943;28;20747;-74
2021/09/23 11:40:13;;;;;;;2.78;2.58;;;23.80;99.90;;;;;;5061311;28;20279;-74
2021/09/23 11:42:44;;;;;;;4.78;2.50;;;24.00;99.90;;;;;;5069796;28;20206;-75
2021/09/23 11:45:14;;;;;;;2.75;2.47;;;24.20;99.90;;;;;;5069578;28;20217;-74
2021/09/23 11:47:49;;;;;;;3.05;2.78;;;24.20;99.90;;;;;;5068788;28;20195;-75
2021/09/23 11:50:26;;;;;;;5.18;2.65;;;24.20;99.90;;;;;;5060998;28;20233;-74
2021/09/23 11:52:54;;;;;;;2.88;2.67;;;23.90;99.90;;;;;;5069470;28;20206;-75
2021/09/23 11:55:21;;;;;;;3.67;3.08;;;24.00;99.90;;;;;;5061304;28;20210;-74
2021/09/23 11:57:48;;;;;;;3.30;3.00;;;24.30;99.90;;;;;;5068490;28;20206;-76
2021/09/23 12:00:16;;;;;;;3.17;2.90;;;24.50;99.90;;;;;;5068084;28;20669;-74
2021/09/23 12:02:55;;;;;;;3.28;2.85;;;24.50;99.90;;;;;;5067921;28;20280;-75
2021/09/23 12:05:28;;;;;;;3.38;2.03;;;24.50;99.90;;;;;;5068287;28;20206;-76
2021/09/23 12:07:55;;;;;;;4.30;3.85;;;24.60;99.90;;;;;;5067139;28;20292;-74
2021/09/23 12:10:22;;;;;;;2.97;2.67;;;24.80;99.90;;;;;;5072363;28;20713;-74
2021/09/23 12:12:57;;;;;;;3.58;3.28;;;24.70;99.90;;;;;;5073150;28;20209;-73
2021/09/23 12:15:26;;;;;;;2.83;2.50;;;24.60;99.90;;;;;;5067902;28;20267;-75
2021/09/23 12:17:55;;;;;;;3.10;2.83;;;24.80;99.90;;;;;;5066753;28;20263;-73
2021/09/23 12:20:22;;;;;;;4.82;2.38;;;24.70;99.90;;;;;;5070290;28;20632;-76
2021/09/23 12:22:50;;;;;;;2.83;2.63;;;24.60;99.90;;;;;;5071533;28;20267;-75
2021/09/23 12:25:17;;;;;;;3.28;2.97;;;24.70;99.90;;;;;;5072277;28;20625;-75
2021/09/23 12:27:46;;;;;;;3.35;2.58;;;24.70;99.90;;;;;;5072131;28;20260;-75
2021/09/23 12:30:13;;;;;;;3.00;2.60;;;24.80;99.90;;;;;;5069114;28;20321;-76
2021/09/23 12:32:41;;;;;;;3.00;2.70;;;24.30;99.90;;;;;;5072857;28;20206;-75
2021/09/23 12:35:19;;;;;;;3.42;2.35;;;23.80;99.90;;;;;;5069424;28;20202;-74
2021/09/23 12:37:46;;;;;;;3.28;2.72;;;;;;;;;;5062233;28;20670;-74
2021/09/23 12:40:16;;;;;;;2.53;2.33;;;23.10;99.90;;;;;;5069894;28;20625;-74
2021/09/23 12:42:43;;;;;;;2.97;2.75;;;23.10;99.90;;;;;;5071821;28;20213;-75
2021/09/23 12:45:15;;;;;;;6.50;2.50;;;23.60;99.90;;;;;;5072271;28;20260;-74
2021/09/23 12:47:47;;;;;;;2.63;2.42;;;24.30;99.90;;;;;;5072520;28;20214;-74
2021/09/23 12:50:16;;;;;;;2.50;2.30;;;24.50;99.90;;;;;;5071978;28;20230;-75